Gen Frank Besson Jr — AAEC — position and weather

sailwx.info

Track history (hours):
 
Tides and Currents Weather Stations Pressure Air Temp Water Temp Dewpoint Dewpoint Depression Visibility Wind Speed Wind Dir Waves Ship Positions

Gen Frank Besson Jr

Last reported at 2017-Sep-12 18:23 UTC. Time now 2017-Sep-24 17:46 UTC.
Position N 37°10' W 076°36'.
Warning: this ship's position is 11 days out of date.

; draft 5 m.

Type: Military. MMSI: 368766000.

Date/timePositionNaut miles runAvg speedWind from/ knotsBaromVisibWave heightAir tempDewpointWater temp
2017-Sep-12 18:23N 37°10' W 076°36'0 0.0
2017-Sep-12 14:24N 37°10' W 076°36'0 0.0
2017-Sep-12 14:00N 37°10' W 076°36'0 0.0
2017-Sep-12 13:07N 37°10' W 076°36'13 0.3
2017-Sep-10 20:48N 36°59' W 076°27'2 7.7
2017-Sep-10 20:29N 36°57' W 076°25'4 7.6
2017-Sep-10 20:00N 36°58' W 076°21'9 7.6
2017-Sep-10 18:45N 36°59' W 076°09'2 9.2
2017-Sep-10 18:30N 36°58' W 076°06'6 9.8
2017-Sep-10 17:55N 36°57' W 075°59'6 8.9
2017-Sep-10 17:16N 36°54' W 075°53'  
Track history (hours):
 
Tides and Currents Weather Stations Pressure Air Temp Water Temp Dewpoint Dewpoint Depression Visibility Wind Speed Wind Dir Waves Ship Positions

Gen Frank Besson Jr

Last reported at 2017-Sep-12 18:23 UTC. Time now 2017-Sep-24 17:46 UTC.
Position N 37°10' W 076°36'.
Warning: this ship's position is 11 days out of date.

; draft 5 m.

Type: Military. MMSI: 368766000.

Date/timePositionNaut miles runAvg speedWind from/ knotsBaromVisibWave heightAir tempDewpointWater temp
2017-Sep-12 18:23N 37°10' W 076°36'0 0.0
2017-Sep-12 14:24N 37°10' W 076°36'0 0.0
2017-Sep-12 14:00N 37°10' W 076°36'0 0.0
2017-Sep-12 13:07N 37°10' W 076°36'13 0.3
2017-Sep-10 20:48N 36°59' W 076°27'2 7.7
2017-Sep-10 20:29N 36°57' W 076°25'4 7.6
2017-Sep-10 20:00N 36°58' W 076°21'9 7.6
2017-Sep-10 18:45N 36°59' W 076°09'2 9.2
2017-Sep-10 18:30N 36°58' W 076°06'6 9.8
2017-Sep-10 17:55N 36°57' W 075°59'6 8.9
2017-Sep-10 17:16N 36°54' W 075°53'  

Dump ship's entire track history